Big Water, Utah
Current Conditions -  °F | °C
As of 7:53 PM on Sunday 21 Dec 2014 (Local Time) from KPGA Reporting Station
Clear Clear  
Wind Chill: 38°   Ceiling: Unl
Heat Index: 42°   Visibility: 10mi
Dew Point: 32°   Wind: 7mph
Humidity: 67%   Direction: 330°NNW
Pressure: 30"   Gusts: NA
Location:  37.2711°N, 111.769°W
Report Text: KPGA 220253Z AUTO 33006KT 10SM CLR 06/00 A3000 RMK AO2 SLP157 T00560000 50000 TSNO $
Loading
Personal Weather Stations






























Interactive Weather Map New forecast layout! Learn more

10-Day Weather Forecast

Advertisements
Track Severe Weather on mobile